Terminal Aerodrome Forecast
Issued by NWS

Home | Current Version | Previous Version | Text Only | Print | Product List | Glossary On
Versions: 1 2 3 4 5 6 7 8 9 10 11 12
000
FTUS45 KREV 312321
TAFTVL
TAF
KTVL 312321Z 0100/0124 04008KT P6SM FEW200
     FM010200 VRB03KT P6SM SCT200
     FM011700 04008KT P6SM SCT200
     FM012100 19009KT P6SM FEW080 SCT200=

USA.gov is the U.S. government's official web portal to all federal, state and local government web resources and services.